createdAt,value
2022-08-02T00:00:14.918Z,95065.50
2022-08-02T00:02:44.877Z,94970.13
2022-08-02T00:05:14.047Z,95134.28
2022-08-02T00:07:42.616Z,95125.28
2022-08-02T00:10:11.772Z,95129.56
2022-08-02T00:12:39.784Z,95131.06
2022-08-02T00:15:10.598Z,95110.31
2022-08-02T00:17:45.547Z,95136.44
2022-08-02T00:20:15.556Z,95137.59
2022-08-02T00:22:43.441Z,95134.44
2022-08-02T00:25:11.623Z,95112.22
2022-08-02T00:27:39.543Z,95129.03
2022-08-02T00:30:08.373Z,95140.31
2022-08-02T00:32:36.290Z,95128.94
2022-08-02T00:35:06.304Z,95127.72
2022-08-02T00:37:34.205Z,95086.66
2022-08-02T00:40:03.260Z,95136.22
2022-08-02T00:42:31.311Z,95142.75
2022-08-02T00:44:59.316Z,95135.31
2022-08-02T00:47:27.275Z,95133.44
2022-08-02T00:49:55.146Z,95128.72
2022-08-02T00:52:25.276Z,95135.22
2022-08-02T00:54:53.153Z,95143.38
2022-08-02T00:57:21.063Z,95138.22
2022-08-02T00:59:49.086Z,95133.88
2022-08-02T01:02:17.363Z,95143.06
2022-08-02T01:04:45.560Z,95141.13
2022-08-02T01:07:14.520Z,95143.34
2022-08-02T01:09:44.902Z,95135.97
2022-08-02T01:12:14.263Z,95138.34
2022-08-02T01:14:44.540Z,95133.53
2022-08-02T01:17:19.739Z,95141.69
2022-08-02T01:19:56.660Z,95135.00
2022-08-02T01:23:03.605Z,95130.34
2022-08-02T01:26:00.492Z,95134.66
2022-08-02T01:28:38.956Z,95078.16
2022-08-02T01:31:16.407Z,95137.97
2022-08-02T01:33:48.843Z,95137.19
2022-08-02T01:36:19.926Z,95134.59
2022-08-02T01:38:50.603Z,95128.06
2022-08-02T01:41:21.385Z,95028.63
2022-08-02T01:43:54.884Z,95116.38
2022-08-02T01:46:24.227Z,95081.44
2022-08-02T01:48:55.647Z,95049.38
2022-08-02T01:51:46.060Z,95134.81
2022-08-02T01:54:16.658Z,95138.16
2022-08-02T01:56:46.053Z,95131.38
2022-08-02T01:59:20.027Z,95135.13
2022-08-02T02:01:50.789Z,95143.56
2022-08-02T02:04:20.624Z,95141.91
2022-08-02T02:06:50.325Z,95138.53
2022-08-02T02:09:19.160Z,95130.91
2022-08-02T02:12:09.653Z,95139.09
2022-08-02T02:14:40.678Z,95136.94
2022-08-02T02:18:11.498Z,95131.13
2022-08-02T02:20:01.400Z,95139.31
2022-08-02T02:22:29.321Z,95139.16
2022-08-02T02:24:57.233Z,95138.69
2022-08-02T02:27:26.575Z,95132.97
2022-08-02T02:29:57.562Z,95137.44
2022-08-02T02:32:28.502Z,95134.44
2022-08-02T02:34:57.254Z,95132.50
2022-08-02T02:37:27.697Z,95125.41
2022-08-02T02:39:58.110Z,95138.75
2022-08-02T02:42:31.862Z,95140.22
2022-08-02T02:45:03.415Z,95125.81
2022-08-02T02:47:41.157Z,95134.50
2022-08-02T02:50:11.903Z,95137.97
2022-08-02T02:52:41.350Z,95142.78
2022-08-02T02:55:10.709Z,95152.59
2022-08-02T02:57:40.132Z,95150.47
2022-08-02T03:00:13.355Z,95148.00
2022-08-02T03:02:42.789Z,95149.41
2022-08-02T03:05:13.046Z,95099.16
2022-08-02T03:07:41.012Z,95141.81
2022-08-02T03:10:10.312Z,95148.06
2022-08-02T03:12:38.700Z,95140.09
2022-08-02T03:15:09.471Z,95142.53
2022-08-02T03:17:42.509Z,95140.00
2022-08-02T03:20:13.340Z,95137.84
2022-08-02T03:22:41.548Z,95135.91
2022-08-02T03:25:10.948Z,95133.94
2022-08-02T03:27:39.137Z,95138.97
2022-08-02T03:30:10.896Z,95141.88
2022-08-02T03:32:41.036Z,95144.44
2022-08-02T03:35:12.248Z,95154.38
2022-08-02T03:37:41.421Z,95131.59
2022-08-02T03:40:12.062Z,95144.06
2022-08-02T03:42:41.491Z,95144.47
2022-08-02T03:45:13.637Z,95148.31
2022-08-02T03:47:42.912Z,95149.56
2022-08-02T03:50:13.370Z,95150.25
2022-08-02T03:52:43.496Z,94976.72
2022-08-02T03:55:12.882Z,95150.94
2022-08-02T03:57:41.005Z,95158.69
2022-08-02T04:00:13.024Z,95144.28
2022-08-02T04:02:41.072Z,95168.63
2022-08-02T04:05:10.927Z,95170.97
2022-08-02T04:08:03.552Z,95159.94
2022-08-02T04:10:27.304Z,95183.09
2022-08-02T04:12:56.313Z,95182.09
2022-08-02T04:15:26.003Z,95155.44
2022-08-02T04:17:57.816Z,95187.34
2022-08-02T04:20:29.621Z,95132.13
2022-08-02T04:23:02.837Z,95190.53
2022-08-02T04:25:38.215Z,95133.50
2022-08-02T04:28:17.407Z,95181.47
2022-08-02T04:30:48.345Z,95109.72
2022-08-02T04:33:16.804Z,95130.25
2022-08-02T04:35:45.339Z,95171.88
2022-08-02T04:38:14.700Z,95169.41
2022-08-02T04:40:50.864Z,95183.41
2022-08-02T04:43:18.891Z,95185.09
2022-08-02T04:45:49.458Z,95179.84
2022-08-02T04:48:17.363Z,95187.72
2022-08-02T04:50:45.234Z,95177.25
2022-08-02T04:53:13.136Z,95126.75
2022-08-02T04:55:41.057Z,95184.97
2022-08-02T04:58:24.106Z,95185.88
2022-08-02T05:00:58.458Z,95182.78
2022-08-02T05:03:26.349Z,95182.38
2022-08-02T05:05:55.357Z,95170.53
2022-08-02T05:08:23.237Z,95192.25
2022-08-02T05:10:51.096Z,95188.25
2022-08-02T05:13:19.004Z,95177.31
2022-08-02T05:15:49.464Z,95199.69
2022-08-02T05:18:19.028Z,95198.69
2022-08-02T05:20:46.907Z,95197.59
2022-08-02T05:23:14.813Z,95199.59
2022-08-02T05:25:42.759Z,95199.97
2022-08-02T05:28:11.712Z,95201.78
2022-08-02T05:30:39.939Z,95148.63
2022-08-02T05:33:08.493Z,95184.69
2022-08-02T05:35:37.804Z,95208.31
2022-08-02T05:38:05.729Z,95205.03
2022-08-02T05:40:38.183Z,95207.78
2022-08-02T05:43:23.358Z,95206.75
2022-08-02T05:45:53.531Z,95209.56
2022-08-02T05:48:21.937Z,95208.72
2022-08-02T05:51:04.813Z,95213.41
2022-08-02T05:53:39.949Z,95206.06
2022-08-02T05:56:19.297Z,95209.09
2022-08-02T05:58:53.227Z,95210.84
2022-08-02T06:01:29.645Z,95224.44
2022-08-02T06:04:00.631Z,95226.81
2022-08-02T06:06:33.412Z,95219.53
2022-08-02T06:09:04.013Z,95182.91
2022-08-02T06:11:36.925Z,95221.59
2022-08-02T06:14:05.957Z,95230.09
2022-08-02T06:16:42.202Z,95221.09
2022-08-02T06:19:12.709Z,95229.44
2022-08-02T06:22:32.906Z,95174.75
2022-08-02T06:24:33.741Z,95238.50
2022-08-02T06:27:02.307Z,95233.59
2022-08-02T06:29:36.988Z,95232.28
2022-08-02T06:32:09.025Z,95229.28
2022-08-02T06:34:40.890Z,95232.41
2022-08-02T06:37:28.332Z,95235.63
2022-08-02T06:40:02.779Z,95239.84
2022-08-02T06:42:42.845Z,95248.53
2022-08-02T06:45:11.128Z,95242.44
2022-08-02T06:47:39.041Z,95241.56
2022-08-02T06:50:07.751Z,95140.75
2022-08-02T06:52:37.093Z,95233.47
2022-08-02T06:55:07.056Z,95234.06
2022-08-02T06:57:35.201Z,95210.59
2022-08-02T07:00:07.232Z,95227.09
2022-08-02T07:02:36.169Z,95215.97
2022-08-02T07:05:04.448Z,95233.41
2022-08-02T07:07:32.662Z,95183.25
2022-08-02T07:10:02.264Z,95221.75
2022-08-02T07:12:31.964Z,95232.97
2022-08-02T07:15:00.179Z,95222.00
2022-08-02T07:17:28.462Z,95216.00
2022-08-02T07:19:56.432Z,95232.38
2022-08-02T07:22:24.541Z,95237.22
2022-08-02T07:24:52.941Z,95185.34
2022-08-02T07:27:23.094Z,95225.44
2022-08-02T07:29:51.053Z,95206.63
2022-08-02T07:32:21.069Z,95216.91
2022-08-02T07:34:51.346Z,95222.50
2022-08-02T07:37:35.427Z,95225.56
2022-08-02T07:40:13.899Z,95223.53
2022-08-02T07:42:44.714Z,95163.97
2022-08-02T07:45:13.547Z,95228.13
2022-08-02T07:47:43.155Z,95201.16
2022-08-02T07:50:12.368Z,95222.78
2022-08-02T07:52:41.037Z,95217.88
2022-08-02T07:55:10.093Z,95180.75
2022-08-02T07:57:42.494Z,95224.53
2022-08-02T08:00:16.024Z,95211.34
2022-08-02T08:02:44.904Z,95225.75
2022-08-02T08:05:13.508Z,95211.28
2022-08-02T08:07:42.840Z,95097.81
2022-08-02T08:10:11.569Z,95229.44
2022-08-02T08:12:40.043Z,95183.63
2022-08-02T08:15:08.721Z,95219.09
2022-08-02T08:17:38.212Z,95223.09
2022-08-02T08:20:07.376Z,95231.91
2022-08-02T08:22:35.329Z,95214.72
2022-08-02T08:25:04.115Z,95226.66
2022-08-02T08:27:32.904Z,95181.28
2022-08-02T08:30:02.362Z,95206.91
2022-08-02T08:32:30.230Z,95214.38
2022-08-02T08:35:03.623Z,95210.88
2022-08-02T08:37:35.354Z,95207.34
2022-08-02T08:40:05.065Z,95209.00
2022-08-02T08:42:33.460Z,95168.28
2022-08-02T08:45:01.796Z,95210.03
2022-08-02T08:47:35.386Z,95208.56
2022-08-02T08:50:06.885Z,95196.44
2022-08-02T08:52:41.152Z,95094.19
2022-08-02T08:55:11.773Z,95209.06
2022-08-02T08:57:43.141Z,95202.69
2022-08-02T09:00:14.134Z,95205.78
2022-08-02T09:02:43.288Z,95203.91
2022-08-02T09:05:15.038Z,95201.03
2022-08-02T09:07:45.056Z,95200.16
2022-08-02T09:10:34.585Z,95202.34
2022-08-02T09:13:37.680Z,95197.34
2022-08-02T09:16:13.071Z,95202.03
2022-08-02T09:18:45.166Z,95197.09
2022-08-02T09:21:16.353Z,95182.00
2022-08-02T09:23:46.654Z,95193.69
2022-08-02T09:26:16.148Z,95186.00
2022-08-02T09:28:46.502Z,95192.59
2022-08-02T09:31:16.040Z,95194.44
2022-08-02T09:33:45.900Z,95196.34
2022-08-02T09:36:16.290Z,95170.91
2022-08-02T09:38:55.133Z,95193.53
2022-08-02T09:41:24.259Z,95187.81
2022-08-02T09:44:05.451Z,95189.66
2022-08-02T09:46:37.833Z,95192.22
2022-08-02T09:49:09.637Z,95187.69
2022-08-02T09:51:40.719Z,95187.28
2022-08-02T09:54:12.013Z,95176.59
2022-08-02T09:56:49.683Z,95080.84
2022-08-02T09:59:19.484Z,95177.72
2022-08-02T10:01:51.723Z,95162.00
2022-08-02T10:04:34.479Z,95172.66
2022-08-02T10:07:23.036Z,95168.59
2022-08-02T10:09:51.845Z,95161.38
2022-08-02T10:12:20.871Z,95170.13
2022-08-02T10:14:51.394Z,95171.97
2022-08-02T10:17:22.115Z,95172.69
2022-08-02T10:20:00.318Z,95150.75
2022-08-02T10:22:35.056Z,95158.13
2022-08-02T10:25:05.601Z,95158.91
2022-08-02T10:28:02.602Z,95090.63
2022-08-02T10:30:25.535Z,95163.81
2022-08-02T10:32:56.154Z,95161.81
2022-08-02T10:35:26.965Z,95164.50
2022-08-02T10:38:01.286Z,95162.31
2022-08-02T10:40:44.877Z,95137.91
2022-08-02T10:43:13.519Z,95165.06
2022-08-02T10:45:41.634Z,95109.34
2022-08-02T10:48:11.731Z,95074.88
2022-08-02T10:50:56.127Z,95155.38
2022-08-02T10:53:28.387Z,95152.81
2022-08-02T10:55:57.967Z,95147.72
2022-08-02T10:58:29.304Z,95151.16
2022-08-02T11:00:59.053Z,95161.09
2022-08-02T11:03:40.080Z,95149.59
2022-08-02T11:06:25.389Z,95154.75
2022-08-02T11:09:32.280Z,95150.97
2022-08-02T11:12:03.279Z,95052.91
2022-08-02T11:14:31.726Z,95147.31
2022-08-02T11:17:14.458Z,95115.16
2022-08-02T11:20:17.603Z,95145.72
2022-08-02T11:22:48.016Z,95143.72
2022-08-02T11:26:03.147Z,95149.97
2022-08-02T11:28:30.073Z,95103.53
2022-08-02T11:30:59.846Z,95137.25
2022-08-02T11:33:34.713Z,95140.72
2022-08-02T11:36:04.589Z,95062.44
2022-08-02T11:38:32.568Z,95152.34
2022-08-02T11:41:06.217Z,95071.47
2022-08-02T11:43:38.262Z,95144.56
2022-08-02T11:46:14.042Z,95138.19
2022-08-02T11:48:43.003Z,95150.28
2022-08-02T11:51:14.758Z,95121.97
2022-08-02T11:53:44.525Z,95105.44
2022-08-02T11:56:21.785Z,95145.66
2022-08-02T11:59:05.184Z,95145.66
2022-08-02T12:01:38.206Z,95146.72
2022-08-02T12:04:17.940Z,95146.91
2022-08-02T12:06:54.342Z,95132.50
2022-08-02T12:09:24.033Z,95132.75
2022-08-02T12:11:53.307Z,95141.16
2022-08-02T12:14:21.237Z,95114.19
2022-08-02T12:17:07.604Z,95140.72
2022-08-02T12:19:36.201Z,95136.44
2022-08-02T12:22:19.152Z,95138.06
2022-08-02T12:24:49.416Z,95058.72
2022-08-02T12:27:36.679Z,95133.81
2022-08-02T12:30:09.067Z,95133.09
2022-08-02T12:32:37.550Z,95100.31
2022-08-02T12:35:11.374Z,95129.88
2022-08-02T12:37:41.433Z,95127.91
2022-08-02T12:40:25.787Z,95131.31
2022-08-02T12:42:58.497Z,95132.00
2022-08-02T12:45:38.330Z,95128.25
2022-08-02T12:48:09.434Z,95124.38
2022-08-02T12:50:38.511Z,95115.25
2022-08-02T12:53:09.243Z,95099.34
2022-08-02T12:56:02.085Z,95112.81
2022-08-02T12:58:31.561Z,95112.81
2022-08-02T13:01:01.652Z,95110.38
2022-08-02T13:04:09.755Z,95113.94
2022-08-02T13:06:45.879Z,95092.75
2022-08-02T13:09:17.662Z,95101.91
2022-08-02T13:11:46.321Z,95115.09
2022-08-02T13:14:16.234Z,95103.63
2022-08-02T13:16:45.581Z,95114.50
2022-08-02T13:19:15.491Z,95093.41
2022-08-02T13:22:01.474Z,95123.13
2022-08-02T13:24:40.759Z,95123.31
2022-08-02T13:27:20.947Z,95030.66
2022-08-02T13:29:51.510Z,95112.03
2022-08-02T13:32:19.479Z,95109.84
2022-08-02T13:34:47.674Z,95072.72
2022-08-02T13:37:16.107Z,95113.28
2022-08-02T13:40:00.080Z,95117.56
2022-08-02T13:42:32.216Z,95079.47
2022-08-02T13:45:11.781Z,95114.03
2022-08-02T13:48:04.750Z,95116.78
2022-08-02T13:50:31.280Z,95110.13
2022-08-02T13:52:59.170Z,95112.31
2022-08-02T13:55:28.051Z,95110.13
2022-08-02T13:57:56.152Z,95118.66
2022-08-02T14:00:34.753Z,95121.81
2022-08-02T14:03:05.287Z,95108.13
2022-08-02T14:05:46.965Z,95113.69
2022-08-02T14:08:17.910Z,95123.78
2022-08-02T14:10:47.076Z,95102.25
2022-08-02T14:13:15.107Z,95039.53
2022-08-02T14:15:44.838Z,95032.88
2022-08-02T14:18:14.942Z,95062.91
2022-08-02T14:20:43.284Z,95052.88
2022-08-02T14:23:11.200Z,95116.97
2022-08-02T14:25:39.181Z,95109.34
2022-08-02T14:28:07.338Z,95118.19
2022-08-02T14:30:35.455Z,95117.25
2022-08-02T14:33:05.083Z,95112.16
2022-08-02T14:35:33.001Z,95124.97
2022-08-02T14:38:01.142Z,95119.09
2022-08-02T14:40:30.991Z,95116.09
2022-08-02T14:43:00.247Z,95103.50
2022-08-02T14:45:39.764Z,95114.97
2022-08-02T14:48:12.012Z,95117.16
2022-08-02T14:50:40.078Z,95095.97
2022-08-02T14:53:12.536Z,95107.09
2022-08-02T14:55:41.727Z,95102.78
2022-08-02T14:58:09.625Z,94991.38
2022-08-02T15:00:40.948Z,95087.53
2022-08-02T15:03:10.826Z,95099.88
2022-08-02T15:05:39.003Z,95099.78
2022-08-02T15:08:07.629Z,95096.66
2022-08-02T15:10:35.513Z,95102.84
2022-08-02T15:13:03.417Z,95085.44
2022-08-02T15:15:31.337Z,95101.88
2022-08-02T15:18:00.372Z,95098.06
2022-08-02T15:20:29.967Z,95104.78
2022-08-02T15:23:03.427Z,95103.81
2022-08-02T15:25:31.378Z,95098.06
2022-08-02T15:27:59.585Z,95075.00
2022-08-02T15:30:27.615Z,95110.84
2022-08-02T15:32:55.530Z,95090.03
2022-08-02T15:35:23.388Z,95112.78
2022-08-02T15:37:52.982Z,95128.34
2022-08-02T15:40:21.198Z,95040.78
2022-08-02T15:42:49.136Z,95116.25
2022-08-02T15:45:17.393Z,95121.13
2022-08-02T15:47:50.537Z,95112.84
2022-08-02T15:50:19.464Z,94964.63
2022-08-02T15:52:47.397Z,95113.22
2022-08-02T15:55:16.865Z,95116.31
2022-08-02T15:57:45.216Z,95119.28
2022-08-02T16:00:18.493Z,95115.63
2022-08-02T16:02:47.742Z,95122.38
2022-08-02T16:05:17.960Z,95125.75
2022-08-02T16:07:46.658Z,95122.38
2022-08-02T16:10:16.675Z,95113.41
2022-08-02T16:12:44.765Z,95120.56
2022-08-02T16:15:13.553Z,95128.59
2022-08-02T16:17:48.812Z,95113.03
2022-08-02T16:20:22.241Z,95100.31
2022-08-02T16:22:50.139Z,95139.91
2022-08-02T16:25:19.439Z,95139.84
2022-08-02T16:28:06.794Z,95145.38
2022-08-02T16:30:36.005Z,95137.78
2022-08-02T16:33:04.328Z,95139.13
2022-08-02T16:35:32.586Z,95149.94
2022-08-02T16:38:00.495Z,95143.13
2022-08-02T16:40:30.715Z,95145.13
2022-08-02T16:42:58.679Z,95132.31
2022-08-02T16:45:28.490Z,95157.16
2022-08-02T16:48:03.598Z,95150.91
2022-08-02T16:50:33.819Z,95137.72
2022-08-02T16:55:51.507Z,95161.75
2022-08-02T16:58:19.866Z,95147.53
2022-08-02T17:00:48.002Z,95163.16
2022-08-02T17:03:15.985Z,95162.84
2022-08-02T17:05:56.431Z,95162.19
2022-08-02T17:11:14.505Z,95171.19
2022-08-02T17:13:45.517Z,95172.09
2022-08-02T17:16:20.722Z,95089.16
2022-08-02T17:18:54.041Z,95178.06
2022-08-02T17:21:22.583Z,95179.19
2022-08-02T17:24:07.653Z,95183.38
2022-08-02T17:26:38.607Z,95180.38
2022-08-02T17:29:15.321Z,95166.81
2022-08-02T17:32:06.233Z,95188.66
2022-08-02T17:34:34.042Z,95186.78
2022-08-02T17:37:02.024Z,95176.25
2022-08-02T17:39:34.570Z,95142.75
2022-08-02T17:42:15.473Z,95203.03
2022-08-02T17:44:50.113Z,95202.94
2022-08-02T17:47:19.497Z,95194.44
2022-08-02T17:49:48.556Z,95137.94
2022-08-02T17:52:50.634Z,95204.94
2022-08-02T17:55:05.749Z,95212.41
2022-08-02T17:57:56.266Z,95211.03
2022-08-02T18:00:24.588Z,95216.75
2022-08-02T18:02:55.623Z,95172.59
2022-08-02T18:05:39.397Z,95195.34
2022-08-02T18:08:10.071Z,95216.63
2022-08-02T18:10:39.359Z,95226.31
2022-08-02T18:13:08.664Z,95217.81
2022-08-02T18:15:37.102Z,95224.97
2022-08-02T18:18:05.353Z,95220.84
2022-08-02T18:20:34.240Z,95234.75
2022-08-02T18:23:02.135Z,95239.59
2022-08-02T18:25:37.508Z,95241.22
2022-08-02T18:28:16.508Z,95204.84
2022-08-02T18:30:44.533Z,95235.59
2022-08-02T18:33:55.388Z,95243.19
2022-08-02T18:36:00.945Z,95237.00
2022-08-02T18:38:31.269Z,95174.00
2022-08-02T18:41:02.892Z,95263.91
2022-08-02T18:43:35.397Z,95232.25
2022-08-02T18:46:15.430Z,95233.59
2022-08-02T18:48:47.039Z,95233.66
2022-08-02T18:51:18.740Z,95230.31
2022-08-02T18:53:48.954Z,95251.81
2022-08-02T18:56:20.446Z,95246.38
2022-08-02T18:58:55.196Z,95263.84
2022-08-02T19:01:32.219Z,95115.25
2022-08-02T19:04:04.226Z,95268.34
2022-08-02T19:06:32.523Z,95264.88
2022-08-02T19:09:11.277Z,95264.22
2022-08-02T19:11:41.305Z,95273.06
2022-08-02T19:14:19.397Z,95236.56
2022-08-02T19:16:55.608Z,95262.06
2022-08-02T19:19:28.938Z,95271.47
2022-08-02T19:22:18.598Z,95276.63
2022-08-02T19:24:47.157Z,95279.19
2022-08-02T19:27:20.721Z,95213.38
2022-08-02T19:30:02.298Z,95267.53
2022-08-02T19:32:41.708Z,95240.34
2022-08-02T19:35:30.530Z,95280.09
2022-08-02T19:38:08.870Z,95279.53
2022-08-02T19:40:37.284Z,95273.91
2022-08-02T19:44:27.475Z,95286.69
2022-08-02T19:45:57.171Z,95279.56
2022-08-02T19:48:27.146Z,95278.13
2022-08-02T19:51:00.590Z,95269.97
2022-08-02T19:53:46.749Z,95288.59
2022-08-02T19:56:20.951Z,95278.78
2022-08-02T19:58:53.952Z,95268.31
2022-08-02T20:01:36.774Z,95271.41
2022-08-02T20:04:13.135Z,95226.66
2022-08-02T20:06:45.491Z,95266.19
2022-08-02T20:09:16.662Z,95284.66
2022-08-02T20:11:45.241Z,95278.00
2022-08-02T20:14:13.884Z,95205.44
2022-08-02T20:16:43.163Z,95215.97
2022-08-02T20:19:14.103Z,95271.78
2022-08-02T20:21:48.326Z,95270.16
2022-08-02T20:24:21.001Z,95277.44
2022-08-02T20:26:54.676Z,95274.53
2022-08-02T20:29:43.304Z,95275.03
2022-08-02T20:32:11.840Z,95278.47
2022-08-02T20:34:39.838Z,95284.72
2022-08-02T20:37:56.298Z,95286.38
2022-08-02T20:39:55.672Z,95291.53
2022-08-02T20:42:24.731Z,95285.75
2022-08-02T20:44:54.237Z,95285.78
2022-08-02T20:47:38.962Z,95292.50
2022-08-02T20:50:30.423Z,95291.06
2022-08-02T20:53:00.006Z,95221.44
2022-08-02T20:55:31.301Z,95291.09
2022-08-02T20:58:01.440Z,95274.75
2022-08-02T21:00:31.661Z,95301.38
2022-08-02T21:03:02.688Z,95298.91
2022-08-02T21:05:43.907Z,95303.69
2022-08-02T21:08:21.253Z,95314.06
2022-08-02T21:10:52.096Z,95287.50
2022-08-02T21:13:23.995Z,95270.75
2022-08-02T21:15:55.312Z,95309.91
2022-08-02T21:18:40.297Z,95303.25
2022-08-02T21:21:10.095Z,95268.97
2022-08-02T21:23:45.006Z,95308.84
2022-08-02T21:26:25.771Z,95271.81
2022-08-02T21:28:56.793Z,95310.53
2022-08-02T21:31:29.727Z,95311.03
2022-08-02T21:34:01.158Z,95294.34
2022-08-02T21:36:31.768Z,95315.47
2022-08-02T21:39:04.752Z,95306.09
2022-08-02T21:41:38.995Z,95318.59
2022-08-02T21:44:13.480Z,95311.50
2022-08-02T21:46:44.581Z,95312.66
2022-08-02T21:49:14.912Z,95300.53
2022-08-02T21:51:49.234Z,95242.28
2022-08-02T21:54:20.341Z,95313.28
2022-08-02T21:56:50.100Z,94744.69
2022-08-02T21:59:26.344Z,95313.47
2022-08-02T22:01:56.740Z,95309.19
2022-08-02T22:04:26.794Z,95319.41
2022-08-02T22:06:55.423Z,95325.72
2022-08-02T22:09:44.014Z,95325.69
2022-08-02T22:12:12.785Z,95318.59
2022-08-02T22:14:49.525Z,95316.28
2022-08-02T22:17:52.006Z,95314.69
2022-08-02T22:20:13.682Z,95306.97
2022-08-02T22:22:42.025Z,95329.75
2022-08-02T22:25:26.982Z,95317.19
2022-08-02T22:28:36.139Z,95318.72
2022-08-02T22:30:52.450Z,95308.19
2022-08-02T22:33:42.203Z,95283.59
2022-08-02T22:36:16.553Z,95302.38
2022-08-02T22:38:44.901Z,95298.41
2022-08-02T22:41:13.409Z,95251.53
2022-08-02T22:43:41.483Z,95298.41
2022-08-02T22:46:09.996Z,95276.63
2022-08-02T22:48:43.911Z,95260.94
2022-08-02T22:51:12.652Z,95300.72
2022-08-02T22:53:42.909Z,95304.31
2022-08-02T22:56:11.479Z,95274.66
2022-08-02T22:58:35.329Z,95152.56
2022-08-02T22:58:36.989Z,95132.63
2022-08-02T22:59:12.384Z,95295.38
2022-08-02T23:01:27.648Z,95284.09
2022-08-02T23:03:55.652Z,95284.53
2022-08-02T23:06:23.527Z,95298.19
2022-08-02T23:08:52.823Z,95295.88
2022-08-02T23:11:20.776Z,95304.97
2022-08-02T23:13:48.641Z,95298.75
2022-08-02T23:16:37.386Z,95309.75
2022-08-02T23:19:23.080Z,95257.34
2022-08-02T23:22:01.877Z,95306.63
2022-08-02T23:24:33.915Z,95302.34
2022-08-02T23:27:02.079Z,95320.31
2022-08-02T23:29:30.027Z,95316.81
2022-08-02T23:31:59.083Z,95313.75
2022-08-02T23:34:27.239Z,95247.69
2022-08-02T23:36:55.267Z,95317.34
2022-08-02T23:39:23.320Z,95322.03
2022-08-02T23:41:55.053Z,95317.72
2022-08-02T23:44:23.827Z,95298.53
2022-08-02T23:46:52.100Z,95313.84
2022-08-02T23:49:20.381Z,95290.34
2022-08-02T23:51:49.281Z,95269.59
2022-08-02T23:54:17.327Z,95323.19
2022-08-02T23:56:45.656Z,95323.19
2022-08-02T23:59:15.541Z,95325.53
